createdAt,value
2022-11-27T00:02:21.837Z,4.48
2022-11-27T00:04:51.463Z,4.57
2022-11-27T00:07:20.835Z,4.83
2022-11-27T00:09:50.617Z,4.82
2022-11-27T00:12:22.990Z,4.71
2022-11-27T00:14:55.563Z,4.69
2022-11-27T00:17:22.339Z,4.73
2022-11-27T00:19:51.626Z,4.69
2022-11-27T00:22:20.910Z,4.63
2022-11-27T00:24:47.444Z,4.48
2022-11-27T00:27:14.074Z,4.45
2022-11-27T00:29:40.572Z,4.23
2022-11-27T00:32:08.191Z,4.27
2022-11-27T00:34:34.955Z,4.36
2022-11-27T00:37:01.630Z,4.36
2022-11-27T00:39:28.228Z,4.38
2022-11-27T00:41:54.977Z,4.45
2022-11-27T00:44:24.538Z,4.43
2022-11-27T00:46:53.930Z,4.43
2022-11-27T00:49:23.298Z,4.52
2022-11-27T00:51:52.126Z,4.32
2022-11-27T00:54:22.595Z,4.19
2022-11-27T00:56:49.301Z,4.11
2022-11-27T00:59:15.807Z,4.16
2022-11-27T01:01:43.937Z,4.14
2022-11-27T01:04:15.275Z,4.13
2022-11-27T01:06:42.718Z,4.24
2022-11-27T01:09:11.710Z,4.36
2022-11-27T01:11:38.270Z,4.47
2022-11-27T01:14:11.613Z,4.54
2022-11-27T01:16:42.551Z,4.63
2022-11-27T01:19:10.580Z,4.57
2022-11-27T01:21:37.177Z,4.56
2022-11-27T01:24:05.536Z,4.57
2022-11-27T01:26:32.489Z,4.60
2022-11-27T01:28:59.759Z,4.59
2022-11-27T01:31:29.001Z,4.59
2022-11-27T01:33:58.752Z,4.54
2022-11-27T01:36:26.186Z,4.63
2022-11-27T01:38:57.005Z,4.80
2022-11-27T01:41:27.704Z,4.99
2022-11-27T01:44:00.245Z,5.13
2022-11-27T01:46:48.812Z,5.14
2022-11-27T01:49:32.735Z,4.98
2022-11-27T01:52:05.218Z,4.76
2022-11-27T01:54:41.587Z,4.67
2022-11-27T01:57:13.479Z,4.69
2022-11-27T01:59:40.892Z,4.77
2022-11-27T02:02:07.479Z,4.73
2022-11-27T02:04:35.156Z,4.67
2022-11-27T02:07:01.836Z,4.69
2022-11-27T02:09:29.845Z,4.73
2022-11-27T02:12:03.842Z,4.87
2022-11-27T02:14:36.339Z,4.67
2022-11-27T02:17:23.486Z,4.62
2022-11-27T02:19:59.591Z,4.60
2022-11-27T02:22:41.193Z,4.73
2022-11-27T02:25:30.288Z,4.55
2022-11-27T02:28:21.609Z,4.46
2022-11-27T02:30:57.298Z,4.60
2022-11-27T02:33:27.476Z,4.48
2022-11-27T02:36:01.100Z,4.43
2022-11-27T02:38:37.991Z,4.38
2022-11-27T02:41:19.287Z,4.33
2022-11-27T02:43:48.669Z,4.25
2022-11-27T02:46:17.547Z,4.26
2022-11-27T02:48:48.443Z,4.38
2022-11-27T02:51:17.956Z,4.36
2022-11-27T02:53:50.828Z,4.42
2022-11-27T02:56:22.121Z,4.45
2022-11-27T02:58:51.103Z,4.43
2022-11-27T03:01:20.478Z,4.44
2022-11-27T03:03:53.568Z,4.61
2022-11-27T03:06:31.869Z,4.63
2022-11-27T03:09:04.216Z,4.53
2022-11-27T03:11:30.984Z,4.43
2022-11-27T03:14:01.694Z,4.34
2022-11-27T03:16:40.877Z,4.37
2022-11-27T03:19:23.071Z,4.38
2022-11-27T03:22:01.048Z,4.43
2022-11-27T03:24:30.311Z,4.62
2022-11-27T03:27:00.655Z,4.62
2022-11-27T03:29:49.891Z,4.60
2022-11-27T03:32:16.741Z,4.63
2022-11-27T03:34:44.578Z,4.54
2022-11-27T03:37:11.259Z,4.48
2022-11-27T03:39:38.190Z,4.52
2022-11-27T03:42:26.994Z,4.41
2022-11-27T03:45:21.106Z,4.34
2022-11-27T03:48:11.565Z,4.31
2022-11-27T03:50:38.022Z,4.25
2022-11-27T03:53:19.047Z,4.20
2022-11-27T03:56:12.099Z,4.17
2022-11-27T03:58:49.155Z,4.11
2022-11-27T04:01:19.671Z,4.02
2022-11-27T04:03:46.260Z,3.97
2022-11-27T04:06:12.868Z,3.92
2022-11-27T04:08:40.287Z,3.95
2022-11-27T04:11:06.975Z,4.15
2022-11-27T04:13:33.442Z,4.15
2022-11-27T04:16:04.106Z,4.30
2022-11-27T04:18:35.216Z,4.35
2022-11-27T04:21:04.914Z,4.42
2022-11-27T04:23:35.744Z,4.45
2022-11-27T04:26:06.280Z,4.48
2022-11-27T04:28:35.840Z,4.35
2022-11-27T04:31:06.183Z,4.41
2022-11-27T04:33:35.925Z,4.22
2022-11-27T04:36:06.290Z,4.18
2022-11-27T04:38:34.260Z,4.08
2022-11-27T04:41:03.413Z,4.06
2022-11-27T04:43:29.919Z,4.11
2022-11-27T04:45:56.527Z,4.16
2022-11-27T04:48:23.051Z,4.18
2022-11-27T04:50:49.558Z,4.12
2022-11-27T04:53:16.111Z,4.09
2022-11-27T04:55:42.653Z,4.07
2022-11-27T04:58:09.181Z,4.00
2022-11-27T05:00:35.787Z,3.82
2022-11-27T05:03:02.505Z,3.96
2022-11-27T05:05:29.726Z,3.95
2022-11-27T05:07:56.316Z,4.12
2022-11-27T05:10:23.074Z,4.37
2022-11-27T05:12:49.577Z,4.29
2022-11-27T05:15:16.179Z,4.32
2022-11-27T05:17:42.678Z,4.32
2022-11-27T05:20:09.545Z,4.31
2022-11-27T05:22:36.710Z,4.30
2022-11-27T05:25:03.414Z,4.37
2022-11-27T05:27:30.199Z,4.25
2022-11-27T05:29:56.775Z,4.18
2022-11-27T05:32:23.257Z,4.16
2022-11-27T05:34:49.881Z,4.19
2022-11-27T05:37:19.650Z,4.10
2022-11-27T05:39:46.304Z,4.21
2022-11-27T05:42:12.821Z,4.19
2022-11-27T05:44:39.583Z,4.19
2022-11-27T05:47:09.151Z,4.18
2022-11-27T05:49:39.392Z,4.20
2022-11-27T05:52:07.942Z,4.16
2022-11-27T05:54:34.449Z,4.10
2022-11-27T05:57:01.002Z,4.14
2022-11-27T05:59:27.799Z,4.14
2022-11-27T06:01:54.393Z,4.20
2022-11-27T06:04:20.934Z,4.10
2022-11-27T06:06:47.431Z,4.13
2022-11-27T06:09:13.935Z,4.14
2022-11-27T06:11:40.901Z,4.12
2022-11-27T06:14:09.271Z,4.07
2022-11-27T06:16:37.413Z,4.02
2022-11-27T06:19:04.060Z,4.06
2022-11-27T06:21:30.567Z,4.11
2022-11-27T06:23:57.259Z,4.21
2022-11-27T06:26:29.514Z,4.30
2022-11-27T06:28:57.593Z,4.22
2022-11-27T06:31:27.444Z,4.30
2022-11-27T06:33:55.651Z,4.36
2022-11-27T06:36:28.118Z,4.34
2022-11-27T06:38:54.622Z,4.36
2022-11-27T06:41:24.674Z,4.58
2022-11-27T06:43:51.293Z,4.51
2022-11-27T06:46:19.370Z,4.60
2022-11-27T06:48:47.840Z,4.61
2022-11-27T06:51:25.531Z,4.55
2022-11-27T06:53:52.962Z,4.53
2022-11-27T06:56:25.353Z,4.51
2022-11-27T06:58:54.305Z,4.54
2022-11-27T07:01:22.045Z,4.62
2022-11-27T07:03:48.885Z,4.68
2022-11-27T07:06:19.243Z,4.77
2022-11-27T07:08:45.799Z,4.88
2022-11-27T07:11:15.414Z,4.94
2022-11-27T07:13:45.360Z,4.98
2022-11-27T07:16:16.117Z,4.98
2022-11-27T07:18:48.285Z,5.08
2022-11-27T07:21:15.252Z,5.07
2022-11-27T07:23:45.435Z,4.87
2022-11-27T07:26:22.057Z,4.72
2022-11-27T07:28:49.087Z,4.51
2022-11-27T07:31:21.643Z,4.37
2022-11-27T07:33:48.629Z,4.42
2022-11-27T07:36:16.599Z,4.39
2022-11-27T07:38:44.676Z,4.20
2022-11-27T07:41:15.515Z,4.17
2022-11-27T07:43:46.187Z,4.10
2022-11-27T07:46:20.648Z,4.32
2022-11-27T07:48:47.473Z,4.25
2022-11-27T07:51:16.363Z,4.28
2022-11-27T07:53:44.979Z,4.29
2022-11-27T07:56:16.008Z,4.28
2022-11-27T07:58:44.730Z,4.40
2022-11-27T08:01:16.258Z,4.51
2022-11-27T08:03:44.495Z,4.66
2022-11-27T08:06:21.834Z,4.77
2022-11-27T08:08:49.278Z,4.85
2022-11-27T08:11:33.108Z,4.99
2022-11-27T08:14:05.670Z,5.00
2022-11-27T08:16:33.807Z,5.04
2022-11-27T08:19:00.791Z,5.03
2022-11-27T08:21:29.561Z,5.02
2022-11-27T08:23:57.265Z,5.11
2022-11-27T08:26:24.452Z,5.18
2022-11-27T08:28:59.429Z,5.27
2022-11-27T08:31:26.435Z,5.26
2022-11-27T08:33:53.307Z,5.37
2022-11-27T08:36:20.513Z,5.37
2022-11-27T08:38:47.499Z,5.37
2022-11-27T08:41:16.260Z,5.53
2022-11-27T08:43:45.780Z,5.64
2022-11-27T08:46:15.386Z,5.73
2022-11-27T08:48:42.262Z,5.74
2022-11-27T08:51:16.871Z,5.86
2022-11-27T08:53:46.747Z,5.86
2022-11-27T08:56:21.827Z,5.90
2022-11-27T08:58:48.616Z,5.95
2022-11-27T09:01:21.943Z,6.32
2022-11-27T09:03:49.297Z,6.53
2022-11-27T09:06:24.867Z,6.47
2022-11-27T09:08:52.070Z,6.30
2022-11-27T09:11:20.709Z,6.23
2022-11-27T09:13:48.205Z,6.25
2022-11-27T09:16:19.235Z,6.23
2022-11-27T09:18:51.806Z,6.11
2022-11-27T09:21:27.257Z,5.99
2022-11-27T09:24:01.872Z,6.01
2022-11-27T09:26:29.597Z,6.03
2022-11-27T09:28:58.525Z,6.07
2022-11-27T09:31:26.257Z,6.10
2022-11-27T09:33:53.171Z,6.17
2022-11-27T09:36:23.290Z,6.31
2022-11-27T09:38:50.288Z,6.53
2022-11-27T09:41:39.483Z,6.73
2022-11-27T09:44:29.428Z,6.96
2022-11-27T09:46:59.660Z,7.32
2022-11-27T09:49:35.601Z,7.68
2022-11-27T09:52:05.133Z,8.02
2022-11-27T09:54:41.152Z,8.17
2022-11-27T09:57:16.530Z,8.13
2022-11-27T09:59:50.734Z,8.23
2022-11-27T10:02:25.291Z,8.38
2022-11-27T10:05:12.837Z,8.43
2022-11-27T10:08:06.039Z,8.53
2022-11-27T10:10:33.304Z,8.56
2022-11-27T10:13:21.156Z,8.57
2022-11-27T10:16:06.055Z,8.62
2022-11-27T10:18:40.690Z,8.86
2022-11-27T10:21:22.217Z,9.22
2022-11-27T10:24:04.631Z,9.41
2022-11-27T10:26:37.108Z,9.61
2022-11-27T10:29:17.665Z,9.79
2022-11-27T10:31:47.328Z,9.89
2022-11-27T10:34:26.253Z,9.83
2022-11-27T10:36:56.269Z,9.66
2022-11-27T10:39:32.939Z,9.47
2022-11-27T10:42:10.790Z,9.51
2022-11-27T10:44:55.366Z,9.34
2022-11-27T10:47:23.964Z,9.28
2022-11-27T10:49:50.473Z,9.27
2022-11-27T10:52:19.050Z,9.25
2022-11-27T10:55:00.286Z,9.13
2022-11-27T10:57:47.672Z,9.10
2022-11-27T11:00:24.974Z,9.08
2022-11-27T11:03:02.850Z,9.04
2022-11-27T11:05:41.424Z,9.03
2022-11-27T11:08:19.960Z,9.02
2022-11-27T11:10:57.417Z,9.04
2022-11-27T11:13:29.745Z,9.22
2022-11-27T11:16:25.817Z,9.14
2022-11-27T11:18:55.971Z,9.19
2022-11-27T11:21:35.519Z,9.22
2022-11-27T11:24:02.119Z,9.31
2022-11-27T11:26:34.077Z,9.38
2022-11-27T11:29:06.188Z,9.44
2022-11-27T11:31:38.195Z,9.57
2022-11-27T11:34:22.651Z,9.70
2022-11-27T11:37:07.891Z,9.87
2022-11-27T11:39:59.618Z,9.98
2022-11-27T11:42:32.173Z,10.00
2022-11-27T11:45:05.782Z,9.86
2022-11-27T11:47:32.669Z,9.80
2022-11-27T11:49:59.492Z,9.77
2022-11-27T11:52:39.070Z,9.74
2022-11-27T11:55:27.750Z,9.81
2022-11-27T11:58:20.121Z,9.90
2022-11-27T12:01:19.464Z,9.94
2022-11-27T12:04:15.854Z,10.06
2022-11-27T12:07:17.673Z,10.41
2022-11-27T12:09:46.227Z,10.82
2022-11-27T12:12:57.046Z,11.26
2022-11-27T12:15:45.663Z,11.53
2022-11-27T12:18:21.357Z,11.82
2022-11-27T12:21:17.679Z,11.91
2022-11-27T12:24:05.228Z,12.14
2022-11-27T12:26:34.763Z,12.48
2022-11-27T12:29:26.234Z,12.78
2022-11-27T12:32:15.276Z,13.07
2022-11-27T12:35:02.491Z,13.23
2022-11-27T12:37:37.348Z,13.37
2022-11-27T12:40:31.692Z,13.43
2022-11-27T12:43:26.916Z,13.46
2022-11-27T12:45:59.681Z,13.41
2022-11-27T12:48:38.872Z,13.46
2022-11-27T12:51:19.307Z,13.50
2022-11-27T12:54:10.897Z,13.56
2022-11-27T12:56:42.754Z,13.63
2022-11-27T12:59:22.799Z,13.73
2022-11-27T13:02:19.745Z,13.84
2022-11-27T13:04:55.934Z,13.98
2022-11-27T13:07:38.774Z,14.13
2022-11-27T13:10:30.127Z,14.30
2022-11-27T13:13:09.647Z,14.21
2022-11-27T13:15:46.998Z,14.19
2022-11-27T13:18:35.349Z,14.06
2022-11-27T13:21:09.232Z,14.08
2022-11-27T13:23:35.874Z,13.96
2022-11-27T13:26:07.365Z,13.97
2022-11-27T13:29:00.102Z,13.93
2022-11-27T13:31:49.780Z,13.92
2022-11-27T13:34:23.822Z,13.86
2022-11-27T13:37:03.519Z,13.52
2022-11-27T13:39:35.641Z,13.42
2022-11-27T13:42:06.623Z,13.27
2022-11-27T13:44:37.926Z,13.13
2022-11-27T13:47:16.957Z,13.01
2022-11-27T13:49:43.685Z,12.85
2022-11-27T13:52:12.321Z,12.73
2022-11-27T13:54:39.423Z,12.61
2022-11-27T13:57:19.724Z,12.46
2022-11-27T14:00:06.839Z,12.38
2022-11-27T14:02:40.695Z,12.40
2022-11-27T14:05:07.645Z,12.38
2022-11-27T14:07:47.962Z,12.32
2022-11-27T14:10:24.404Z,12.36
2022-11-27T14:13:02.699Z,12.57
2022-11-27T14:15:31.700Z,12.66
2022-11-27T14:18:27.361Z,12.66
2022-11-27T14:21:03.225Z,12.73
2022-11-27T14:23:31.700Z,12.89
2022-11-27T14:26:24.867Z,13.02
2022-11-27T14:28:55.958Z,13.20
2022-11-27T14:31:24.077Z,13.39
2022-11-27T14:34:14.096Z,13.49
2022-11-27T14:36:37.214Z,13.63
2022-11-27T14:39:07.821Z,13.67
2022-11-27T14:41:36.879Z,13.80
2022-11-27T14:44:06.731Z,14.08
2022-11-27T14:46:39.373Z,14.00
2022-11-27T14:49:05.955Z,13.92
2022-11-27T14:51:35.219Z,13.73
2022-11-27T14:54:12.658Z,13.45
2022-11-27T14:56:44.196Z,13.25
2022-11-27T14:59:19.554Z,13.12
2022-11-27T15:02:05.851Z,12.99
2022-11-27T15:04:37.459Z,12.82
2022-11-27T15:07:13.273Z,12.77
2022-11-27T15:09:46.738Z,12.60
2022-11-27T15:12:42.461Z,12.44
2022-11-27T15:15:19.038Z,12.33
2022-11-27T15:17:53.392Z,12.13
2022-11-27T15:20:33.408Z,11.97
2022-11-27T15:23:00.611Z,11.84
2022-11-27T15:25:36.644Z,11.71
2022-11-27T15:28:19.525Z,11.74
2022-11-27T15:30:48.265Z,11.92
2022-11-27T15:33:35.132Z,11.69
2022-11-27T15:36:22.294Z,11.60
2022-11-27T15:38:52.309Z,11.81
2022-11-27T15:41:24.112Z,11.70
2022-11-27T15:43:50.648Z,11.45
2022-11-27T15:46:35.271Z,11.13
2022-11-27T15:49:01.769Z,11.08
2022-11-27T15:51:29.155Z,10.91
2022-11-27T15:53:55.697Z,10.83
2022-11-27T15:56:22.831Z,10.71
2022-11-27T15:58:49.397Z,10.51
2022-11-27T16:01:17.264Z,10.39
2022-11-27T16:03:43.874Z,10.25
2022-11-27T16:06:10.473Z,10.20
2022-11-27T16:08:37.056Z,10.16
2022-11-27T16:11:07.178Z,10.12
2022-11-27T16:13:34.142Z,10.01
2022-11-27T16:16:02.479Z,9.89
2022-11-27T16:18:29.764Z,9.99
2022-11-27T16:20:56.379Z,9.81
2022-11-27T16:23:22.907Z,9.74
2022-11-27T16:25:49.478Z,9.73
2022-11-27T16:28:17.302Z,9.69
2022-11-27T16:30:44.260Z,9.65
2022-11-27T16:33:10.965Z,9.60
2022-11-27T16:35:37.567Z,9.56
2022-11-27T16:38:04.067Z,9.58
2022-11-27T16:40:30.668Z,9.53
2022-11-27T16:42:57.169Z,9.45
2022-11-27T16:45:23.826Z,9.54
2022-11-27T16:47:50.487Z,9.52
2022-11-27T16:50:18.754Z,9.56
2022-11-27T16:52:47.073Z,9.56
2022-11-27T16:55:22.369Z,9.62
2022-11-27T16:57:49.237Z,9.63
2022-11-27T17:00:19.003Z,9.59
2022-11-27T17:02:45.642Z,9.72
2022-11-27T17:05:12.186Z,9.75
2022-11-27T17:07:38.941Z,9.78
2022-11-27T17:10:06.101Z,9.90
2022-11-27T17:12:33.353Z,10.07
2022-11-27T17:14:59.858Z,10.21
2022-11-27T17:17:26.691Z,10.38
2022-11-27T17:20:00.161Z,10.35
2022-11-27T17:22:27.302Z,10.51
2022-11-27T17:24:55.296Z,10.62
2022-11-27T17:27:22.055Z,10.75
2022-11-27T17:29:49.565Z,10.90
2022-11-27T17:32:18.258Z,10.96
2022-11-27T17:34:45.493Z,11.01
2022-11-27T17:37:12.566Z,11.20
2022-11-27T17:39:40.850Z,11.34
2022-11-27T17:42:12.813Z,11.45
2022-11-27T17:44:40.494Z,11.47
2022-11-27T17:47:07.100Z,11.54
2022-11-27T17:49:33.869Z,11.48
2022-11-27T17:52:06.014Z,11.48
2022-11-27T17:54:33.600Z,11.49
2022-11-27T17:57:00.204Z,11.49
2022-11-27T17:59:26.733Z,11.53
2022-11-27T18:01:53.413Z,11.39
2022-11-27T18:04:24.196Z,11.43
2022-11-27T18:06:50.920Z,11.34
2022-11-27T18:09:20.204Z,11.39
2022-11-27T18:11:46.856Z,11.23
2022-11-27T18:14:13.944Z,11.33
2022-11-27T18:16:40.786Z,11.27
2022-11-27T18:19:11.282Z,11.37
2022-11-27T18:21:38.657Z,11.32
2022-11-27T18:24:23.906Z,11.36
2022-11-27T18:27:08.123Z,11.34
2022-11-27T18:29:41.588Z,11.47
2022-11-27T18:32:09.341Z,11.46
2022-11-27T18:34:36.268Z,11.48
2022-11-27T18:37:04.366Z,11.58
2022-11-27T18:39:31.910Z,11.56
2022-11-27T18:41:59.032Z,11.43
2022-11-27T18:44:27.003Z,11.29
2022-11-27T18:46:53.558Z,11.19
2022-11-27T18:49:24.374Z,11.20
2022-11-27T18:51:55.000Z,11.05
2022-11-27T18:54:24.302Z,11.22
2022-11-27T18:56:53.732Z,11.19
2022-11-27T18:59:21.917Z,11.19
2022-11-27T19:01:51.364Z,11.01
2022-11-27T19:04:17.967Z,11.16
2022-11-27T19:06:44.662Z,11.07
2022-11-27T19:09:14.519Z,11.12
2022-11-27T19:11:42.087Z,11.14
2022-11-27T19:14:11.438Z,11.19
2022-11-27T19:16:47.417Z,11.11
2022-11-27T19:22:07.884Z,11.11
2022-11-27T19:24:34.575Z,10.96
2022-11-27T19:27:01.321Z,10.98
2022-11-27T19:29:27.892Z,11.01
2022-11-27T19:31:57.626Z,11.00
2022-11-27T19:34:24.393Z,11.15
2022-11-27T19:36:53.777Z,11.10
2022-11-27T19:39:22.682Z,11.09
2022-11-27T19:41:49.398Z,11.11
2022-11-27T19:44:17.527Z,11.00
2022-11-27T19:46:45.181Z,10.94
2022-11-27T19:49:18.735Z,10.89
2022-11-27T19:51:46.053Z,10.92
2022-11-27T19:54:13.701Z,11.01
2022-11-27T19:56:42.487Z,10.87
2022-11-27T19:59:12.489Z,10.78
2022-11-27T20:01:40.445Z,10.76
2022-11-27T20:04:07.855Z,10.79
2022-11-27T20:06:34.453Z,10.80
2022-11-27T20:09:03.962Z,10.69
2022-11-27T20:11:34.946Z,10.64
2022-11-27T20:14:04.291Z,10.66
2022-11-27T20:16:32.006Z,10.51
2022-11-27T20:18:58.736Z,10.39
2022-11-27T20:21:26.160Z,10.28
2022-11-27T20:23:55.116Z,10.24
2022-11-27T20:26:25.064Z,10.30
2022-11-27T20:28:56.244Z,10.30
2022-11-27T20:31:37.575Z,10.32
2022-11-27T20:34:05.918Z,10.28
2022-11-27T20:36:34.148Z,10.19
2022-11-27T20:39:01.336Z,10.27
2022-11-27T20:41:28.256Z,10.24
2022-11-27T20:44:00.432Z,10.23
2022-11-27T20:46:27.623Z,10.39
2022-11-27T20:49:01.380Z,10.28
2022-11-27T20:51:34.441Z,10.24
2022-11-27T20:54:02.723Z,10.06
2022-11-27T20:56:30.971Z,10.10
2022-11-27T20:58:58.631Z,10.11
2022-11-27T21:01:30.949Z,9.97
2022-11-27T21:04:00.371Z,9.91
2022-11-27T21:06:29.841Z,9.87
2022-11-27T21:08:59.285Z,9.78
2022-11-27T21:11:28.386Z,9.62
2022-11-27T21:14:00.452Z,9.74
2022-11-27T21:16:29.329Z,9.66
2022-11-27T21:18:58.925Z,9.62
2022-11-27T21:21:26.073Z,9.62
2022-11-27T21:23:54.849Z,9.53
2022-11-27T21:26:21.772Z,9.53
2022-11-27T21:28:50.243Z,9.44
2022-11-27T21:31:19.576Z,9.54
2022-11-27T21:33:51.727Z,9.51
2022-11-27T21:36:20.047Z,9.53
2022-11-27T21:38:46.997Z,9.41
2022-11-27T21:41:14.024Z,9.34
2022-11-27T21:43:41.332Z,9.44
2022-11-27T21:46:08.648Z,9.68
2022-11-27T21:48:35.358Z,9.65
2022-11-27T21:51:03.453Z,9.78
2022-11-27T21:53:31.094Z,9.82
2022-11-27T21:55:57.914Z,9.65
2022-11-27T21:58:26.529Z,9.62
2022-11-27T22:00:53.165Z,9.47
2022-11-27T22:03:19.691Z,9.48
2022-11-27T22:05:46.241Z,9.49
2022-11-27T22:10:58.086Z,9.44
2022-11-27T22:13:27.303Z,9.44
2022-11-27T22:15:54.254Z,9.52
2022-11-27T22:18:21.081Z,9.59
2022-11-27T22:20:47.920Z,9.52
2022-11-27T22:23:14.715Z,9.75
2022-11-27T22:25:41.542Z,9.74
2022-11-27T22:28:08.300Z,9.73
2022-11-27T22:30:35.323Z,9.67
2022-11-27T22:33:02.153Z,9.71
2022-11-27T22:35:29.435Z,9.63
2022-11-27T22:37:57.089Z,9.60
2022-11-27T22:40:24.041Z,9.75
2022-11-27T22:42:50.575Z,9.74
2022-11-27T22:45:17.251Z,9.73
2022-11-27T22:47:43.800Z,9.70
2022-11-27T22:50:10.567Z,9.71
2022-11-27T22:52:37.078Z,9.63
2022-11-27T22:55:04.089Z,9.66
2022-11-27T22:57:30.594Z,9.61
2022-11-27T22:59:57.203Z,9.71
2022-11-27T23:02:23.787Z,9.72
2022-11-27T23:04:50.328Z,9.65
2022-11-27T23:07:21.024Z,9.73
2022-11-27T23:09:50.279Z,9.84
2022-11-27T23:12:16.844Z,9.88
2022-11-27T23:14:43.451Z,9.94
2022-11-27T23:17:10.215Z,9.98
2022-11-27T23:19:36.846Z,10.01
2022-11-27T23:22:03.437Z,10.00
2022-11-27T23:24:32.906Z,9.80
2022-11-27T23:26:59.614Z,9.78
2022-11-27T23:29:26.213Z,9.77
2022-11-27T23:31:52.745Z,9.79
2022-11-27T23:34:19.371Z,9.84
2022-11-27T23:36:45.944Z,9.81
2022-11-27T23:39:13.929Z,9.79
2022-11-27T23:41:40.870Z,9.84
2022-11-27T23:44:07.815Z,9.81
2022-11-27T23:46:34.413Z,9.95
2022-11-27T23:49:03.562Z,9.86
2022-11-27T23:51:32.574Z,9.85
2022-11-27T23:54:02.395Z,9.81
2022-11-27T23:56:34.416Z,9.72
2022-11-27T23:59:01.233Z,9.90
